Time;durP1;ratioP1;P1;durP2;ratioP2;P2;SDS_P1;SDS_P2;PMS_P1;PMS_P2;Temp;Humidity;BMP_temperature;BMP_pressure;BME280_temperature;BME280_humidity;BME280_pressure;Samples;Min_cycle;Max_cycle;Signal;HPM_P1;HPM_P2
2022/12/11 00:01:12;;;;;;;11.00;4.22;;;;;;;1.20;100.00;96089.19;4519709;31;20462;-76
2022/12/11 00:03:40;;;;;;;11.07;4.50;;;;;;;1.09;100.00;96087.84;4519522;31;20088;-76
2022/12/11 00:06:09;;;;;;;10.73;4.75;;;;;;;0.94;100.00;96085.84;4517738;31;20080;-76
2022/12/11 00:08:36;;;;;;;12.13;5.30;;;;;;;1.16;100.00;96068.13;4519563;31;20354;-77
2022/12/11 00:11:04;;;;;;;12.13;4.62;;;;;;;0.99;100.00;96066.22;4519309;31;20160;-76
2022/12/11 00:13:31;;;;;;;15.25;5.50;;;;;;;0.97;100.00;96074.78;4519537;31;20080;-76
2022/12/11 00:15:58;;;;;;;;;;;;;;;1.10;100.00;96084.44;4519887;31;20108;-76
2022/12/11 00:18:25;;;;;;;13.32;5.32;;;;;;;0.99;100.00;96088.25;4519698;31;20032;-76
2022/12/11 00:20:52;;;;;;;12.95;4.87;;;;;;;0.99;100.00;96080.63;4504834;31;20096;-77
2022/12/11 00:23:18;;;;;;;;;;;;;;;0.91;100.00;96095.31;4519540;31;20102;-77
2022/12/11 00:25:46;;;;;;;11.57;4.82;;;;;;;0.85;100.00;96099.72;4519515;31;20415;-76
2022/12/11 00:28:15;;;;;;;13.15;4.93;;;;;;;0.67;100.00;96102.91;4505145;31;20108;-76
2022/12/11 00:30:42;;;;;;;12.10;4.97;;;;;;;0.98;100.00;96112.00;4519254;31;20099;-77
2022/12/11 00:33:10;;;;;;;14.07;5.53;;;;;;;1.00;100.00;96116.13;4505041;31;20083;-76
2022/12/11 00:35:42;;;;;;;13.40;6.12;;;;;;;0.94;100.00;96096.00;4519458;31;20075;-77
2022/12/11 00:38:16;;;;;;;14.10;5.82;;;;;;;0.90;100.00;96093.66;4519397;31;20118;-76
2022/12/11 00:40:43;;;;;;;13.07;5.28;;;;;;;0.94;100.00;96097.72;4519232;31;20103;-76
2022/12/11 00:43:11;;;;;;;14.52;6.43;;;;;;;1.16;100.00;96113.84;4519343;31;20617;-76
2022/12/11 00:45:40;;;;;;;14.95;5.30;;;;;;;0.81;100.00;96122.72;4519374;31;20075;-77
2022/12/11 00:48:08;;;;;;;13.45;6.00;;;;;;;0.96;100.00;96119.66;4519355;31;20095;-76
2022/12/11 00:50:35;;;;;;;17.83;7.18;;;;;;;0.85;100.00;96131.88;4519032;31;20110;-77
2022/12/11 00:53:03;;;;;;;15.73;6.53;;;;;;;1.04;100.00;96121.91;4519189;31;20088;-77
2022/12/11 00:55:30;;;;;;;15.00;6.47;;;;;;;0.95;100.00;96122.22;4519370;31;20106;-76
2022/12/11 00:57:57;;;;;;;15.02;6.35;;;;;;;0.74;100.00;96123.81;4519272;31;20099;-77
2022/12/11 01:00:24;;;;;;;;;;;;;;;0.93;100.00;96135.00;4519253;31;20091;-77
2022/12/11 01:02:51;;;;;;;16.83;6.55;;;;;;;1.05;100.00;96141.34;4519009;31;19966;-77
2022/12/11 01:05:18;;;;;;;18.45;8.13;;;;;;;0.89;100.00;96151.22;4519170;31;20083;-77
2022/12/11 01:07:45;;;;;;;17.15;7.55;;;;;;;1.05;100.00;96166.75;4519119;31;20103;-77
2022/12/11 01:10:24;;;;;;;19.90;7.62;;;;;;;1.24;100.00;96156.75;4518960;31;20521;-77
2022/12/11 01:13:03;;;;;;;14.82;6.25;;;;;;;1.07;100.00;96155.66;4518959;31;20136;-77
2022/12/11 01:15:33;;;;;;;18.48;7.95;;;;;;;1.23;100.00;96167.81;4519102;31;20532;-77
2022/12/11 01:18:06;;;;;;;15.43;6.40;;;;;;;1.01;100.00;96160.94;4517891;31;20095;-77
2022/12/11 01:20:33;;;;;;;14.85;6.18;;;;;;;1.34;100.00;96160.63;4518907;31;20096;-77
2022/12/11 01:23:00;;;;;;;14.23;5.62;;;;;;;1.16;100.00;96160.37;4504332;31;20101;-77
2022/12/11 01:25:28;;;;;;;16.08;6.70;;;;;;;1.11;100.00;96148.75;4519028;31;20083;-77
2022/12/11 01:27:55;;;;;;;14.02;5.37;;;;;;;1.18;100.00;96162.06;4518809;31;20092;-77
2022/12/11 01:30:23;;;;;;;15.27;6.47;;;;;;;1.30;100.00;96157.38;4518793;31;20155;-76
2022/12/11 01:32:51;;;;;;;16.62;6.70;;;;;;;0.80;100.00;96146.47;4504479;31;20078;-77
2022/12/11 01:35:18;;;;;;;14.60;6.30;;;;;;;1.15;100.00;96163.81;4518811;31;20107;-77
2022/12/11 01:37:45;;;;;;;12.63;5.37;;;;;;;1.27;100.00;96176.97;4518781;31;20521;-77
2022/12/11 01:40:14;;;;;;;14.57;6.68;;;;;;;1.11;100.00;96161.47;4518489;31;20110;-76
2022/12/11 01:42:41;;;;;;;14.40;6.07;;;;;;;1.07;100.00;96168.38;4517504;31;20178;-76
2022/12/11 01:45:14;;;;;;;12.95;5.55;;;;;;;1.00;100.00;96181.31;4518715;31;20080;-76
2022/12/11 01:47:42;;;;;;;14.85;6.18;;;;;;;1.30;100.00;96126.06;4518799;31;20435;-77
2022/12/11 01:50:10;;;;;;;14.98;6.78;;;;;;;1.19;100.00;96172.19;4504132;31;20088;-77
2022/12/11 01:52:37;;;;;;;14.60;6.12;;;;;;;1.06;100.00;96155.69;4518500;31;20822;-76
2022/12/11 01:55:04;;;;;;;13.32;5.75;;;;;;;0.97;100.00;96173.81;4504381;31;20099;-76
2022/12/11 01:57:31;;;;;;;17.62;7.25;;;;;;;1.02;100.00;96171.94;4518481;31;20158;-76
2022/12/11 01:59:58;;;;;;;;;;;;;;;0.97;100.00;96156.03;4518756;31;20091;-76
2022/12/11 02:02:27;;;;;;;15.68;6.00;;;;;;;0.92;100.00;96162.97;4504195;31;19971;-76
2022/12/11 02:04:54;;;;;;;17.27;6.20;;;;;;;0.84;100.00;96166.59;4517341;31;20751;-76
2022/12/11 02:07:21;;;;;;;;;;;;;;;0.93;100.00;96169.72;4518780;31;20092;-77
2022/12/11 02:09:48;;;;;;;15.05;5.37;;;;;;;0.96;100.00;96150.13;4518263;31;19976;-77
2022/12/11 02:12:24;;;;;;;17.12;6.80;;;;;;;0.98;100.00;96138.22;4518384;31;20083;-77
2022/12/11 02:15:16;;;;;;;16.23;6.47;;;;;;;1.16;100.00;96127.38;4518381;31;20076;-76
2022/12/11 02:17:47;;;;;;;16.62;6.85;;;;;;;0.79;100.00;96105.00;4504031;31;20103;-77
2022/12/11 02:20:28;;;;;;;15.60;6.40;;;;;;;0.95;100.00;96072.28;4516890;31;20150;-77
2022/12/11 02:23:17;;;;;;;19.25;7.80;;;;;;;0.95;100.00;96119.69;4503689;31;20083;-77
2022/12/11 02:26:14;;;;;;;14.10;6.20;;;;;;;0.99;100.00;96106.03;4490808;31;20091;-77
2022/12/11 02:28:53;;;;;;;17.40;7.05;;;;;;;0.89;100.00;96095.38;4519272;31;20087;-76
2022/12/11 02:31:35;;;;;;;15.90;6.85;;;;;;;0.84;100.00;96082.81;4505986;31;20156;-76
2022/12/11 02:34:20;;;;;;;14.45;5.43;;;;;;;0.97;100.00;96097.63;4520276;31;20106;-77
2022/12/11 02:36:54;;;;;;;15.77;6.12;;;;;;;0.85;100.00;96089.56;4505924;31;20496;-76
2022/12/11 02:39:24;;;;;;;15.23;5.95;;;;;;;0.95;100.00;96091.75;4505927;31;20117;-77
2022/12/11 02:41:51;;;;;;;18.62;7.20;;;;;;;1.08;100.00;96077.75;4519074;31;20099;-76
2022/12/11 02:44:23;;;;;;;;;;;;;;;0.89;100.00;96100.44;4520416;31;20096;-76
2022/12/11 02:46:51;;;;;;;18.73;7.65;;;;;;;0.98;100.00;96086.59;4520301;31;20020;-77
2022/12/11 02:49:19;;;;;;;18.00;7.90;;;;;;;1.02;100.00;96078.78;4520137;31;20104;-76
2022/12/11 02:51:46;;;;;;;17.58;6.57;;;;;;;1.10;100.00;96068.37;4492837;31;20160;-77
2022/12/11 02:54:20;;;;;;;18.45;7.05;;;;;;;0.93;100.00;96075.75;4505599;31;20201;-77
2022/12/11 02:56:54;;;;;;;16.27;7.45;;;;;;;1.03;100.00;96066.94;4520136;31;20548;-76
2022/12/11 02:59:29;;;;;;;16.10;7.05;;;;;;;0.80;100.00;96040.66;4518922;31;20509;-77
2022/12/11 03:01:56;;;;;;;18.65;7.00;;;;;;;0.86;100.00;96068.37;4505855;31;20174;-76
2022/12/11 03:04:23;;;;;;;18.92;7.80;;;;;;;0.98;100.00;96077.25;4505612;31;20111;-77
2022/12/11 03:06:53;;;;;;;19.67;7.75;;;;;;;0.86;100.00;96087.88;4520085;31;20088;-77
2022/12/11 03:09:21;;;;;;;19.62;8.05;;;;;;;0.86;100.00;96085.31;4505569;31;20165;-77
2022/12/11 03:11:47;;;;;;;21.30;8.73;;;;;;;0.86;100.00;96078.53;4519971;31;20152;-77
2022/12/11 03:14:14;;;;;;;;;;;;;;;0.95;100.00;96079.88;4520246;31;20083;-77
2022/12/11 03:16:54;;;;;;;17.73;6.57;;;;;;;1.13;100.00;96097.00;4520046;31;19972;-76
2022/12/11 03:19:34;;;;;;;18.23;7.45;;;;;;;0.89;100.00;96089.47;4505865;31;20446;-77
2022/12/11 03:22:10;;;;;;;18.65;8.32;;;;;;;0.79;100.00;96099.09;4500945;31;20106;-77
2022/12/11 03:24:44;;;;;;;18.30;7.37;;;;;;;0.90;100.00;96086.03;4503965;31;20457;-77
2022/12/11 03:27:40;;;;;;;16.27;6.97;;;;;;;1.05;100.00;96096.44;4504079;31;20132;-77
2022/12/11 03:30:12;;;;;;;18.55;7.97;;;;;;;0.77;100.00;96098.34;4502679;31;20168;-77
2022/12/11 03:33:03;;;;;;;20.83;8.23;;;;;;;0.92;100.00;96092.72;4515842;31;20100;-77
2022/12/11 03:35:34;;;;;;;21.50;8.75;;;;;;;0.92;100.00;96066.50;4503110;31;20084;-77
2022/12/11 03:38:05;;;;;;;20.08;8.35;;;;;;;0.82;100.00;96071.88;4515965;31;20140;-77
2022/12/11 03:40:34;;;;;;;19.87;8.10;;;;;;;0.86;100.00;96098.84;4501769;31;20122;-77
2022/12/11 03:43:02;;;;;;;18.05;8.15;;;;;;;0.99;100.00;96100.94;4515836;31;20095;-77
2022/12/11 03:45:29;;;;;;;19.30;8.43;;;;;;;1.01;100.00;96078.84;4503842;31;20084;-77
2022/12/11 03:47:58;;;;;;;21.02;7.90;;;;;;;0.99;100.00;96114.47;4502615;31;20100;-77
2022/12/11 03:50:27;;;;;;;21.37;8.68;;;;;;;0.92;100.00;96107.13;4503695;31;20434;-77
2022/12/11 03:52:54;;;;;;;19.80;8.68;;;;;;;0.93;100.00;96101.97;4502651;31;20104;-77
2022/12/11 03:55:22;;;;;;;22.67;8.40;;;;;;;0.91;100.00;96129.13;4502644;31;20425;-77
2022/12/11 03:57:49;;;;;;;19.75;7.40;;;;;;;0.85;100.00;96145.44;4502561;31;20096;-77
2022/12/11 04:00:18;;;;;;;21.60;7.47;;;;;;;0.97;100.00;96128.94;4502280;31;20088;-77
2022/12/11 04:03:11;;;;;;;19.58;6.40;;;;;;;1.08;100.00;96123.47;4515735;31;20152;-77
2022/12/11 04:05:40;;;;;;;19.12;7.97;;;;;;;1.07;100.00;96142.13;4513156;31;20426;-77
2022/12/11 04:08:07;;;;;;;18.52;8.02;;;;;;;1.03;100.00;96123.63;4502482;31;20076;-77
2022/12/11 04:10:34;;;;;;;23.67;8.70;;;;;;;0.98;100.00;96143.28;4503374;31;20115;-77
2022/12/11 04:13:01;;;;;;;23.90;8.70;;;;;;;1.10;100.00;96142.03;4503634;31;20110;-76
2022/12/11 04:15:28;;;;;;;;;;;;;;;1.16;100.00;96144.31;4502822;31;20088;-77
2022/12/11 04:26:14;;;;;;;22.37;8.05;;;;;;;0.99;100.00;96166.97;4519563;31;20124;-77
2022/12/11 04:28:42;;;;;;;26.00;9.68;;;;;;;1.12;100.00;96165.66;4519499;31;20072;-77
2022/12/11 04:31:14;;;;;;;23.87;9.57;;;;;;;0.95;100.00;96167.94;4518165;31;20423;-77
2022/12/11 04:33:41;;;;;;;23.20;8.85;;;;;;;1.14;100.00;96189.28;4519362;31;20096;-77
2022/12/11 04:36:09;;;;;;;24.80;9.55;;;;;;;1.14;100.00;96171.50;4519424;31;20566;-77
2022/12/11 04:38:36;;;;;;;21.33;8.27;;;;;;;1.14;100.00;96171.50;4505173;31;20365;-77
2022/12/11 04:41:11;;;;;;;27.10;10.60;;;;;;;1.25;100.00;96171.94;4519092;31;20100;-77
2022/12/11 04:43:37;;;;;;;25.88;10.60;;;;;;;1.10;100.00;96180.13;4518193;31;20171;-77
2022/12/11 04:46:07;;;;;;;27.80;11.20;;;;;;;1.02;100.00;96170.22;4505073;31;20421;-77
2022/12/11 04:48:35;;;;;;;24.85;9.70;;;;;;;0.92;100.00;96198.53;4519331;31;20075;-77
2022/12/11 04:51:02;;;;;;;24.83;9.80;;;;;;;0.97;100.00;96181.44;4518735;31;20096;-77
2022/12/11 04:53:29;;;;;;;27.50;10.57;;;;;;;0.96;100.00;96183.16;4518047;31;20104;-77
2022/12/11 04:55:56;;;;;;;32.50;12.05;;;;;;;1.06;100.00;96183.63;4505008;31;20600;-77
2022/12/11 04:58:24;;;;;;;23.02;9.90;;;;;;;1.05;100.00;96190.41;4519251;31;20075;-77
2022/12/11 05:00:51;;;;;;;31.80;12.63;;;;;;;1.07;100.00;96195.47;4518946;31;20112;-77
2022/12/11 05:03:19;;;;;;;28.92;12.18;;;;;;;0.85;100.00;96193.66;4518002;31;20122;-77
2022/12/11 05:05:48;;;;;;;31.33;12.10;;;;;;;1.05;100.00;96210.75;4519195;31;20355;-77
2022/12/11 05:08:18;;;;;;;28.92;11.68;;;;;;;0.98;100.00;96214.38;4519080;31;20083;-77
2022/12/11 05:10:58;;;;;;;26.75;10.65;;;;;;;0.95;100.00;96211.94;4518989;31;20119;-77
2022/12/11 05:13:26;;;;;;;29.40;11.07;;;;;;;0.95;100.00;96196.69;4517897;31;20103;-77
2022/12/11 05:15:53;;;;;;;25.00;10.23;;;;;;;0.92;100.00;96219.66;4518998;31;20087;-77
2022/12/11 05:18:20;;;;;;;27.40;11.18;;;;;;;0.88;100.00;96223.19;4504747;31;20382;-77
2022/12/11 05:20:59;;;;;;;29.23;11.10;;;;;;;0.95;100.00;96214.47;4518575;31;20118;-77
2022/12/11 05:23:26;;;;;;;31.98;12.15;;;;;;;0.91;100.00;96177.38;4518710;31;20088;-77
2022/12/11 05:25:58;;;;;;;23.20;9.82;;;;;;;0.80;100.00;96190.44;4504637;31;20158;-76
2022/12/11 05:28:27;;;;;;;30.12;11.90;;;;;;;0.68;100.00;96190.84;4518908;31;20148;-76
2022/12/11 05:30:59;;;;;;;31.08;12.07;;;;;;;0.75;100.00;96182.16;4518788;31;20100;-77
2022/12/11 05:33:27;;;;;;;24.85;10.65;;;;;;;0.68;100.00;96185.78;4517791;31;20104;-77
2022/12/11 05:35:54;;;;;;;25.30;11.00;;;;;;;0.62;100.00;96188.50;4517749;31;20728;-77
2022/12/11 05:38:21;;;;;;;29.87;10.50;;;;;;;0.88;100.00;96190.19;4518833;31;20079;-77
2022/12/11 05:40:59;;;;;;;30.48;11.27;;;;;;;0.93;100.00;96218.78;4517240;31;20438;-77
2022/12/11 05:43:27;;;;;;;31.27;13.20;;;;;;;0.87;100.00;96216.47;4517655;31;20498;-77
2022/12/11 05:45:55;;;;;;;29.42;11.75;;;;;;;0.61;100.00;96211.41;4518745;31;20087;-77
2022/12/11 05:48:22;;;;;;;23.75;11.50;;;;;;;0.89;100.00;96241.81;4518702;31;20422;-77
2022/12/11 05:50:59;;;;;;;24.70;10.23;;;;;;;0.79;100.00;96228.56;4518564;31;20100;-77
2022/12/11 05:53:26;;;;;;;;;;;;;;;0.92;100.00;96244.22;4504683;31;20577;-77
2022/12/11 05:55:53;;;;;;;26.55;10.27;;;;;;;0.67;100.00;96246.75;4518777;31;19986;-77
2022/12/11 05:58:20;;;;;;;30.40;13.40;;;;;;;0.64;100.00;96239.22;4504286;31;20144;-77
2022/12/11 06:00:47;;;;;;;32.35;12.65;;;;;;;0.80;100.00;96243.75;4518288;31;20103;-77
2022/12/11 06:03:14;;;;;;;;;;;;;;;0.94;100.00;96237.38;4519297;31;20091;-77
2022/12/11 06:05:41;;;;;;;30.98;11.70;;;;;;;0.61;100.00;96255.38;4520480;31;19981;-77
2022/12/11 06:08:08;;;;;;;28.23;11.80;;;;;;;0.79;100.00;96213.34;4520473;31;20076;-77
2022/12/11 06:10:36;;;;;;;24.65;10.38;;;;;;;0.57;100.00;96247.03;4506027;31;20509;-77
2022/12/11 06:13:03;;;;;;;26.10;10.25;;;;;;;0.40;100.00;96243.37;4520422;31;20163;-77
2022/12/11 06:15:30;;;;;;;30.85;12.45;;;;;;;0.46;100.00;96246.56;4520404;31;20080;-77
2022/12/11 06:17:56;;;;;;;;;;;;;;;0.43;100.00;96240.75;4506403;31;20076;-77
2022/12/11 06:20:23;;;;;;;26.80;10.85;;;;;;;0.53;100.00;96253.09;4520339;31;20019;-77
2022/12/11 06:22:50;;;;;;;;;;;;;;;0.38;100.00;96262.88;4520209;31;20257;-77
2022/12/11 06:25:17;;;;;;;28.20;12.32;;;;;;;0.37;100.00;96240.94;4520423;31;19981;-77
2022/12/11 06:27:44;;;;;;;24.15;9.70;;;;;;;0.40;100.00;96254.34;4520400;31;20072;-77
2022/12/11 06:30:11;;;;;;;;;;;;;;;0.43;100.00;96221.28;4520327;31;20096;-77
2022/12/11 06:32:37;;;;;;;29.02;11.77;;;;;;;0.18;100.00;96244.03;4520222;31;19997;-76
2022/12/11 06:35:04;;;;;;;;;;;;;;;0.34;100.00;96251.19;4520564;31;20079;-77
2022/12/11 06:37:31;;;;;;;26.37;11.12;;;;;;;0.45;100.00;96249.16;4520262;31;19964;-77
2022/12/11 06:39:58;;;;;;;;;;;;;;;0.39;100.00;96232.41;4520297;31;20096;-77
2022/12/11 06:42:25;;;;;;;28.85;11.55;;;;;;;0.32;100.00;96246.16;4520185;31;19993;-77
2022/12/11 06:44:51;;;;;;;;;;;;;;;0.39;100.00;96208.72;4520585;31;20132;-77
2022/12/11 06:47:18;;;;;;;22.05;9.98;;;;;;;0.40;100.00;96266.22;4520212;31;19982;-77
2022/12/11 06:49:45;;;;;;;;;;;;;;;0.42;100.00;96242.44;4520353;31;20100;-77
2022/12/11 06:52:12;;;;;;;23.02;9.32;;;;;;;0.43;100.00;96268.66;4520191;31;19979;-77
2022/12/11 06:54:44;;;;;;;25.40;10.73;;;;;;;0.58;100.00;96265.63;4519925;31;20399;-77
2022/12/11 06:57:11;;;;;;;28.12;10.88;;;;;;;0.35;100.00;96270.59;4519975;31;20426;-77
2022/12/11 06:59:37;;;;;;;;;;;;;;;0.41;100.00;96272.94;4520256;31;20096;-77
2022/12/11 07:02:04;;;;;;;24.25;9.38;;;;;;;0.59;100.00;96272.38;4520080;31;19976;-77
2022/12/11 07:04:32;;;;;;;23.77;9.57;;;;;;;0.57;100.00;96276.66;4519961;31;20135;-77
2022/12/11 07:06:58;;;;;;;21.98;8.80;;;;;;;0.59;100.00;96272.38;4520005;31;20155;-77
2022/12/11 07:09:25;;;;;;;;;;;;;;;0.57;100.00;96281.75;4520229;31;20092;-77
2022/12/11 07:11:52;;;;;;;22.02;8.85;;;;;;;0.57;100.00;96286.81;4520149;31;19993;-77
2022/12/11 07:14:19;;;;;;;21.33;9.05;;;;;;;0.68;100.00;96289.84;4519913;31;20079;-77
2022/12/11 07:16:46;;;;;;;24.87;10.32;;;;;;;0.46;100.00;96271.09;4519955;31;20102;-76
2022/12/11 07:19:13;;;;;;;23.58;9.27;;;;;;;0.57;100.00;96302.88;4519747;31;20518;-77
2022/12/11 07:21:40;;;;;;;;;;;;;;;0.60;100.00;96317.19;4520151;31;20099;-77
2022/12/11 07:24:07;;;;;;;22.73;10.40;;;;;;;0.57;100.00;96345.19;4505565;31;20007;-77
2022/12/11 07:26:34;;;;;;;24.70;9.02;;;;;;;0.63;100.00;96345.00;4505584;31;20075;-77
2022/12/11 07:29:00;;;;;;;26.80;11.68;;;;;;;0.55;100.00;96340.16;4519782;31;20118;-77
2022/12/11 07:31:28;;;;;;;;;;;;;;;0.53;100.00;96358.84;4520248;31;20158;-77
2022/12/11 07:33:57;;;;;;;24.17;8.88;;;;;;;0.34;100.00;96343.34;4519794;31;20014;-77
2022/12/11 07:36:25;;;;;;;20.85;8.93;;;;;;;0.67;100.00;96354.19;4519831;31;20079;-77
2022/12/11 07:38:52;;;;;;;24.15;8.80;;;;;;;0.57;100.00;96330.78;4519687;31;20150;-77
2022/12/11 07:41:19;;;;;;;23.90;9.13;;;;;;;0.70;100.00;96346.47;4505352;31;20095;-77
2022/12/11 07:43:46;;;;;;;23.00;9.40;;;;;;;0.55;100.00;96363.00;4518417;31;20102;-77
2022/12/11 07:46:16;;;;;;;25.10;10.40;;;;;;;0.58;100.00;96351.94;4519735;31;20092;-77
2022/12/11 07:48:44;;;;;;;24.20;9.52;;;;;;;0.70;100.00;96336.31;4519766;31;20115;-77
2022/12/11 07:51:21;;;;;;;24.05;10.10;;;;;;;0.44;100.00;96371.81;4519667;31;20358;-77
2022/12/11 07:53:49;;;;;;;21.08;9.00;;;;;;;0.48;100.00;96386.91;4519642;31;20115;-77
2022/12/11 07:56:18;;;;;;;24.42;9.48;;;;;;;0.37;100.00;96368.62;4519660;31;20144;-77
2022/12/11 07:58:45;;;;;;;25.20;9.52;;;;;;;0.45;100.00;96376.00;4505299;31;20103;-77
2022/12/11 08:01:27;;;;;;;23.83;9.30;;;;;;;0.47;100.00;96380.16;4519431;31;20083;-77
2022/12/11 08:03:55;;;;;;;22.08;9.55;;;;;;;0.60;100.00;96367.94;4518417;31;20092;-77
2022/12/11 08:06:28;;;;;;;22.20;9.48;;;;;;;0.54;100.00;96378.28;4505295;31;20137;-77
2022/12/11 08:08:56;;;;;;;22.85;9.45;;;;;;;0.50;100.00;96389.38;4505040;31;20145;-77
2022/12/11 08:11:23;;;;;;;26.00;9.60;;;;;;;0.44;100.00;96392.94;4519662;31;20104;-77
2022/12/11 08:13:50;;;;;;;21.75;9.05;;;;;;;0.51;100.00;96370.75;4519448;31;20088;-77
2022/12/11 08:16:18;;;;;;;21.48;8.52;;;;;;;0.55;100.00;96402.78;4519528;31;20152;-77
2022/12/11 08:18:46;;;;;;;20.52;7.70;;;;;;;0.48;100.00;96364.06;4519525;31;20089;-77
2022/12/11 08:21:16;;;;;;;19.05;8.70;;;;;;;0.48;100.00;96376.75;4519404;31;20084;-77
2022/12/11 08:23:43;;;;;;;21.23;9.93;;;;;;;0.74;100.00;96372.59;4519239;31;20151;-77
2022/12/11 08:26:17;;;;;;;18.92;8.30;;;;;;;0.50;100.00;96364.84;4518837;31;20083;-76
2022/12/11 08:28:44;;;;;;;22.35;9.55;;;;;;;0.65;100.00;96371.19;4519518;31;20152;-77
2022/12/11 08:31:11;;;;;;;;;;;;;;;0.58;100.00;96372.22;4519593;31;20092;-76
2022/12/11 08:33:39;;;;;;;21.25;9.38;;;;;;;0.75;100.00;96381.88;4519472;31;20039;-78
2022/12/11 08:36:08;;;;;;;17.80;8.80;;;;;;;0.69;100.00;96390.50;4505071;31;20080;-76
2022/12/11 08:38:35;;;;;;;19.85;7.30;;;;;;;0.90;100.00;96404.25;4519247;31;20445;-76
2022/12/11 08:41:17;;;;;;;18.55;7.90;;;;;;;0.70;100.00;96381.19;4517932;31;20099;-76
2022/12/11 08:43:43;;;;;;;20.48;8.50;;;;;;;0.59;100.00;96401.81;4518061;31;20095;-76
2022/12/11 08:46:10;;;;;;;;;;;;;;;0.81;100.00;96414.69;4519581;31;20141;-76
2022/12/11 08:48:39;;;;;;;23.37;9.27;;;;;;;0.74;100.00;96420.81;4505095;31;19975;-76
2022/12/11 08:51:08;;;;;;;18.83;8.70;;;;;;;0.77;100.00;96401.25;4519039;31;20235;-76
2022/12/11 08:53:35;;;;;;;18.98;7.93;;;;;;;0.49;100.00;96385.19;4518018;31;20087;-76
2022/12/11 08:56:03;;;;;;;18.90;6.87;;;;;;;0.42;100.00;96399.75;4504861;31;20128;-76
2022/12/11 08:58:30;;;;;;;19.73;8.35;;;;;;;0.59;100.00;96414.50;4519075;31;20426;-76
2022/12/11 09:00:57;;;;;;;;;;;;;;;0.63;100.00;96433.00;4519322;31;20099;-76
2022/12/11 09:03:24;;;;;;;19.65;8.55;;;;;;;0.52;100.00;96410.47;4504819;31;20357;-76
2022/12/11 09:05:51;;;;;;;22.83;8.55;;;;;;;0.51;100.00;96437.56;4519195;31;20080;-77
2022/12/11 09:08:18;;;;;;;18.70;8.70;;;;;;;0.67;100.00;96445.56;4519188;31;20079;-76
2022/12/11 09:10:45;;;;;;;19.48;7.50;;;;;;;0.63;100.00;96440.59;4518997;31;20095;-76
2022/12/11 09:13:11;;;;;;;;;;;;;;;0.67;100.00;96444.75;4519435;31;20084;-76
2022/12/11 09:15:41;;;;;;;19.85;8.10;;;;;;;0.55;100.00;96449.28;4519196;31;19967;-76
2022/12/11 09:18:08;;;;;;;18.80;8.55;;;;;;;0.52;100.00;96397.78;4519209;31;20572;-77
2022/12/11 09:20:35;;;;;;;;;;;;;;;0.58;100.00;96445.84;4519254;31;20100;-76
2022/12/11 09:23:02;;;;;;;19.95;8.75;;;;;;;0.50;100.00;96443.50;4518576;31;19959;-77
2022/12/11 09:25:29;;;;;;;20.33;8.05;;;;;;;0.54;100.00;96431.59;4518964;31;20071;-77
2022/12/11 09:27:55;;;;;;;;;;;;;;;0.37;100.00;96424.44;4519426;31;20096;-76
2022/12/11 09:30:22;;;;;;;17.75;6.25;;;;;;;0.39;100.00;96427.75;4518883;31;19967;-77
2022/12/11 09:32:49;;;;;;;;;;;;;;;0.60;100.00;96418.69;4519271;31;20107;-77
2022/12/11 09:35:16;;;;;;;20.50;8.10;;;;;;;0.46;100.00;96413.19;4519019;31;19982;-77
2022/12/11 09:37:43;;;;;;;19.55;8.20;;;;;;;0.46;100.00;96408.97;4517752;31;20100;-77
2022/12/11 09:40:11;;;;;;;18.70;7.25;;;;;;;0.65;100.00;96413.50;4518663;31;20151;-77
2022/12/11 09:42:54;;;;;;;15.63;6.85;;;;;;;0.56;100.00;96412.88;4518693;31;20080;-77
2022/12/11 09:45:21;;;;;;;18.90;8.95;;;;;;;0.62;100.00;96408.50;4504556;31;20076;-77
2022/12/11 09:47:51;;;;;;;16.17;6.78;;;;;;;0.76;100.00;96369.16;4518611;31;20148;-77
2022/12/11 09:50:31;;;;;;;17.15;6.60;;;;;;;0.74;100.00;96391.19;4504356;31;20122;-76
2022/12/11 09:53:16;;;;;;;14.95;6.78;;;;;;;0.65;100.00;96409.25;4518681;31;20437;-76
2022/12/11 09:56:01;;;;;;;15.23;6.37;;;;;;;0.73;100.00;96381.91;4518804;31;20140;-76
2022/12/11 09:58:38;;;;;;;16.37;7.43;;;;;;;0.91;100.00;96398.28;4518828;31;20110;-77
2022/12/11 10:01:17;;;;;;;18.15;7.87;;;;;;;1.21;100.00;96371.09;4518464;31;20087;-77
2022/12/11 10:03:54;;;;;;;16.58;6.70;;;;;;;1.14;100.00;96383.16;4518549;31;20153;-76
2022/12/11 10:06:21;;;;;;;18.08;6.85;;;;;;;0.89;100.00;96361.12;4504269;31;20144;-77
2022/12/11 10:09:06;;;;;;;;;;;;;;;1.04;100.00;96366.56;4518787;31;20092;-76
2022/12/11 10:12:04;;;;;;;18.70;6.10;;;;;;;1.26;100.00;96384.47;4518617;31;19994;-76
2022/12/11 10:14:58;;;;;;;18.42;7.18;;;;;;;1.92;97.89;96382.28;4516963;31;20100;-77
2022/12/11 10:17:31;;;;;;;14.35;5.70;;;;;;;1.23;100.00;96397.28;4504201;31;20118;-77
2022/12/11 10:20:21;;;;;;;17.58;6.22;;;;;;;0.96;100.00;96367.66;4516971;31;20402;-77
2022/12/11 10:22:49;;;;;;;19.75;7.12;;;;;;;1.12;100.00;96389.19;4517735;31;20100;-77
2022/12/11 10:25:39;;;;;;;18.37;7.20;;;;;;;1.18;100.00;96391.53;4518301;31;20076;-77
2022/12/11 10:28:17;;;;;;;16.85;5.50;;;;;;;1.12;100.00;96379.84;4518242;31;20071;-77
2022/12/11 10:31:16;;;;;;;17.33;6.60;;;;;;;1.29;99.58;96402.19;4518074;31;20100;-77
2022/12/11 10:33:49;;;;;;;16.85;6.70;;;;;;;1.01;99.62;96386.16;4518140;31;20110;-77
2022/12/11 10:36:20;;;;;;;17.50;7.00;;;;;;;1.26;99.92;96411.59;4518189;31;20426;-77
2022/12/11 10:38:46;;;;;;;16.08;6.55;;;;;;;1.48;96.11;96383.75;4503690;31;20084;-77
2022/12/11 10:41:16;;;;;;;;;;;;;;;1.60;95.88;96398.63;4518186;31;20083;-77
2022/12/11 10:43:46;;;;;;;17.60;6.47;;;;;;;2.05;96.16;96398.75;4517802;31;19989;-77
2022/12/11 10:46:20;;;;;;;18.17;6.90;;;;;;;1.78;94.30;96387.00;4517916;31;20084;-77
2022/12/11 10:48:53;;;;;;;14.30;6.00;;;;;;;2.05;93.00;96403.00;4516849;31;20148;-77
2022/12/11 10:51:23;;;;;;;18.50;6.82;;;;;;;1.85;94.47;96419.78;4520242;31;20088;-77
2022/12/11 10:53:52;;;;;;;18.65;7.18;;;;;;;1.84;92.86;96409.69;4520112;31;20087;-77
2022/12/11 10:56:27;;;;;;;13.65;6.20;;;;;;;1.99;94.71;96417.59;4518862;31;20146;-77
2022/12/11 10:58:55;;;;;;;13.25;5.82;;;;;;;2.53;89.70;96393.59;4505970;31;20075;-77
2022/12/11 11:01:24;;;;;;;14.85;6.47;;;;;;;2.70;90.72;96418.44;4520062;31;20502;-77
2022/12/11 11:03:59;;;;;;;16.67;5.82;;;;;;;2.70;88.25;96412.50;4505614;31;20112;-77
2022/12/11 11:06:26;;;;;;;16.98;6.32;;;;;;;2.31;90.23;96423.25;4505919;31;20150;-77
2022/12/11 11:08:54;;;;;;;;;;;;;;;2.83;88.62;96419.63;4506166;31;20468;-77
2022/12/11 11:11:33;;;;;;;14.43;6.90;;;;;;;2.96;87.80;96430.16;4520024;31;20035;-77
2022/12/11 11:14:15;;;;;;;17.10;6.37;;;;;;;2.58;86.90;96432.47;4519971;31;20092;-77
2022/12/11 11:16:44;;;;;;;15.98;5.82;;;;;;;2.59;88.65;96440.91;4520087;31;20083;-77
2022/12/11 11:19:22;;;;;;;17.55;6.87;;;;;;;2.78;87.80;96458.91;4518746;31;20140;-77
2022/12/11 11:21:54;;;;;;;17.37;6.25;;;;;;;2.79;86.51;96445.28;4519783;31;20095;-77
2022/12/11 11:24:29;;;;;;;17.83;7.05;;;;;;;2.52;89.43;96452.22;4519784;31;20103;-77
2022/12/11 11:26:56;;;;;;;16.58;6.20;;;;;;;2.59;88.92;96457.03;4505652;31;20103;-77
2022/12/11 11:29:39;;;;;;;17.02;6.20;;;;;;;2.82;88.38;96452.81;4507400;31;20347;-77
2022/12/11 11:32:41;;;;;;;15.23;6.10;;;;;;;2.63;87.26;96460.28;4519778;31;20092;-77
2022/12/11 11:35:10;;;;;;;16.67;7.03;;;;;;;2.60;86.11;96458.69;4517574;31;20121;-77
2022/12/11 11:37:41;;;;;;;17.15;6.78;;;;;;;2.46;87.87;96458.38;4519913;31;20088;-77
2022/12/11 11:40:16;;;;;;;16.30;5.80;;;;;;;2.36;88.32;96461.28;4518413;31;20083;-77
2022/12/11 11:42:51;;;;;;;17.05;6.32;;;;;;;2.19;90.65;96457.63;4519652;31;20107;-77
2022/12/11 11:45:25;;;;;;;15.55;5.85;;;;;;;2.31;89.67;96469.91;4518628;31;20104;-77
2022/12/11 11:48:12;;;;;;;15.05;5.80;;;;;;;2.48;87.50;96454.03;4505481;31;20103;-77
2022/12/11 11:50:44;;;;;;;18.08;7.78;;;;;;;1.82;89.59;96468.22;4519770;31;20360;-77
2022/12/11 11:53:18;;;;;;;13.98;5.53;;;;;;;2.26;89.18;96453.97;4519599;31;20100;-77
2022/12/11 11:56:17;;;;;;;14.50;5.87;;;;;;;1.91;89.63;96465.34;4519813;31;20632;-77
2022/12/11 11:58:58;;;;;;;17.95;6.85;;;;;;;2.22;89.40;96485.50;4519634;31;20083;-77